VMMCZSSS

Guest
Details From VMMC - Macau Intl
To ZSSS - HONGQIAO INTL
Flight Number -
Tags decoded
Created
Modified
Stats Distance 782 nm / 1,448 km
Max Altitude 0 ft / 0 m
Waypoints 7
Social Downloads 0
Likes 0
Share VATSIM

Download

Looking for another format? Having issues loading an existing format? Contact us
Advertisement - Login to hide

Notes

Requested: VMMC SOUSA DOTMI LJG SHZ AND ZSSS

Route

VMMC SOUSA DOTMI LJG SHZ AND ZSSS

ID Type Via Altitude Latitude Longitude Leg Dist Tot Dist Heading (true) Name
O VMMC APT - 0 ft / 0 m 22.14867˚ 113.59141˚ - 0 nm - Macau Intl
SOUSA FIX - 0 ft / 0 m 22.01956˚ 116.19106˚ 144 nm 144 nm 93° / 94° -
DOTMI FIX - 0 ft / 0 m 22.71833˚ 116.16833˚ 41 nm 186 nm 358° / 358° -
LJG VOR - 0 ft / 0 m 26.22000˚ 119.54667˚ 279 nm 466 nm 41° / 42° LIANJIANG VOR-DME
SHZ VOR - 0 ft / 0 m 29.59667˚ 120.81333˚ 213 nm 680 nm 18° / 19° SHENGZHOU VOR-DME
AND VOR - 0 ft / 0 m 30.25333˚ 121.21833˚ 44 nm 725 nm 28° / 28° ANDONG VOR-DME
O ZSSS APT - 0 ft / 0 m 31.19787˚ 121.33632˚ 57 nm 782 nm 6° / 6° HONGQIAO INTL

Altitude Profile

Advertisement - Login to hide

Weather


0- 5 10 15 20 25 30 35+ Temperature / ° C

Clouds and Precipitation
Forecast for 2017-12-16 12:00 UTC. Updated 21 minutes ago

Ground ~20,000 ft ~40,000 ft Winds

VMMC

Details ICAO VMMC (MFM)
Name Macau Intl
Region Macau
Timezone Unknown (UTC+0.0)
Stats Elevation 20 ft / 6 m (AMSL)
Location 22.148675° 113.591412°
Runways 1
Magnetic Variation 2.744° W

METAR

VMMC 161130Z 35021KT 9999 FEW030 13/07 Q1025 NOSIG

Decode

TAF

TAF VMMC 160500Z 1606/1712 35020KT 9999 FEW020 SCT040 TEMPO 1612/1624 34025G35KT

Decode

Departure Runways

ID Width Length Bearing (true) Bearing (mag) Surface Threshold Offset Overrun Length
16 148 ft / 45 m 10,584 ft / 3,226 m 160.29° 163.03° Concrete 1,195 ft / 364 m 155 ft / 47 m
34 148 ft / 45 m 10,584 ft / 3,226 m 340.29° 343.03° Concrete 1,215 ft / 370 m 185 ft / 56 m

ZSSS

Details ICAO ZSSS (SHA)
Name HONGQIAO INTL
Region China
Timezone Asia/Shanghai (UTC+8.0)
Stats Elevation 10 ft / 3 m (AMSL)
Location 31.197875° 121.336319°
Runways 1
Magnetic Variation 5.917° W

METAR

ZSSS 161130Z 32006MPS CAVOK 04/M08 Q1036 NOSIG

Decode

TAF

Not found

Destination Runways

ID Width Length Bearing (true) Bearing (mag) Surface Threshold Offset Overrun Length
18 190 ft / 58 m 11,234 ft / 3,424 m 177.21° 183.13° Asphalt 657 ft / 200 m 520 ft / 159 m
36 190 ft / 58 m 11,234 ft / 3,424 m 357.21° 3.13° Asphalt 657 ft / 200 m 520 ft / 159 m

Approach Navaids

Runway Type Ident Frequency Range Bearing (true) Bearing (mag) Slope Elevation
18 Localiser IPK 109.10 MHz 18 nm / 33 km 177.03° 182.95° - 10 ft / 3 m (AMSL)
18 Glidescope IPK 109.10 MHz 10 nm / 19 km 177.21° 183.13° 3.00° 8 ft / 2 m (AMSL)
36 Localiser IWB 110.30 MHz 18 nm / 33 km 356.95° 2.86° - 8 ft / 2 m (AMSL)
36 Glidescope IWB 110.30 MHz 10 nm / 19 km 357.21° 3.13° 3.00° 10 ft / 3 m (AMSL)